sensor_id;sensor_type;location;lat;lon;timestamp;pressure;altitude;pressure_sealevel;temperature;humidity
55474;BME280;65220;52.214;0.116;2022-11-20T00:00:16;101069.66;;;15.71;32.71
55474;BME280;65220;52.214;0.116;2022-11-20T00:02:40;101067.74;;;15.45;32.92
55474;BME280;65220;52.214;0.116;2022-11-20T00:05:06;101070.59;;;15.68;32.78
55474;BME280;65220;52.214;0.116;2022-11-20T00:07:30;101068.22;;;15.60;32.73
55474;BME280;65220;52.214;0.116;2022-11-20T00:09:56;101067.49;;;15.64;32.76
55474;BME280;65220;52.214;0.116;2022-11-20T00:12:21;101063.76;;;15.78;32.74
55474;BME280;65220;52.214;0.116;2022-11-20T00:14:47;101057.56;;;15.47;32.81
55474;BME280;65220;52.214;0.116;2022-11-20T00:17:12;101055.87;;;15.48;32.80
55474;BME280;65220;52.214;0.116;2022-11-20T00:19:37;101051.71;;;15.80;32.67
55474;BME280;65220;52.214;0.116;2022-11-20T00:22:03;101050.34;;;15.74;32.61
55474;BME280;65220;52.214;0.116;2022-11-20T00:24:28;101056.22;;;15.99;32.41
55474;BME280;65220;52.214;0.116;2022-11-20T00:26:53;101057.14;;;15.77;32.55
55474;BME280;65220;52.214;0.116;2022-11-20T00:29:19;101059.12;;;16.39;32.25
55474;BME280;65220;52.214;0.116;2022-11-20T00:31:45;101053.64;;;15.84;32.29
55474;BME280;65220;52.214;0.116;2022-11-20T00:34:10;101050.85;;;16.05;32.27
55474;BME280;65220;52.214;0.116;2022-11-20T00:36:35;101043.83;;;15.89;32.35
55474;BME280;65220;52.214;0.116;2022-11-20T00:39:01;101039.93;;;15.89;32.36
55474;BME280;65220;52.214;0.116;2022-11-20T00:41:28;101035.09;;;15.82;32.43
55474;BME280;65220;52.214;0.116;2022-11-20T00:43:52;101032.62;;;16.35;32.02
55474;BME280;65220;52.214;0.116;2022-11-20T00:46:18;101035.05;;;16.23;32.21
55474;BME280;65220;52.214;0.116;2022-11-20T00:48:42;101034.07;;;16.01;32.21
55474;BME280;65220;52.214;0.116;2022-11-20T00:51:07;101030.01;;;16.07;31.98
55474;BME280;65220;52.214;0.116;2022-11-20T00:53:32;101026.47;;;15.64;32.22
55474;BME280;65220;52.214;0.116;2022-11-20T00:55:59;101020.69;;;15.69;32.32
55474;BME280;65220;52.214;0.116;2022-11-20T00:58:24;101010.64;;;15.92;32.17
55474;BME280;65220;52.214;0.116;2022-11-20T01:00:49;101012.54;;;15.63;32.40
55474;BME280;65220;52.214;0.116;2022-11-20T01:03:14;101008.50;;;16.03;32.20
55474;BME280;65220;52.214;0.116;2022-11-20T01:05:39;101008.09;;;15.79;32.29
55474;BME280;65220;52.214;0.116;2022-11-20T01:08:05;101008.65;;;15.73;32.26
55474;BME280;65220;52.214;0.116;2022-11-20T01:10:30;101008.91;;;15.42;32.45
55474;BME280;65220;52.214;0.116;2022-11-20T01:12:56;101007.60;;;16.28;32.05
55474;BME280;65220;52.214;0.116;2022-11-20T01:15:21;101002.52;;;15.80;32.18
55474;BME280;65220;52.214;0.116;2022-11-20T01:17:47;100995.74;;;15.78;32.31
55474;BME280;65220;52.214;0.116;2022-11-20T01:20:13;100985.85;;;15.94;32.19
55474;BME280;65220;52.214;0.116;2022-11-20T01:22:38;100978.44;;;16.02;32.06
55474;BME280;65220;52.214;0.116;2022-11-20T01:25:03;100971.68;;;15.34;32.45
55474;BME280;65220;52.214;0.116;2022-11-20T01:27:29;100969.18;;;15.45;32.29
55474;BME280;65220;52.214;0.116;2022-11-20T01:29:54;100967.64;;;15.27;32.54
55474;BME280;65220;52.214;0.116;2022-11-20T01:32:19;100963.24;;;15.75;32.18
55474;BME280;65220;52.214;0.116;2022-11-20T01:34:45;100965.42;;;15.24;32.52
55474;BME280;65220;52.214;0.116;2022-11-20T01:37:10;100966.79;;;15.28;32.63
55474;BME280;65220;52.214;0.116;2022-11-20T01:39:35;100964.96;;;16.34;31.97
55474;BME280;65220;52.214;0.116;2022-11-20T01:42:01;100961.79;;;15.24;32.48
55474;BME280;65220;52.214;0.116;2022-11-20T01:44:48;100954.19;;;15.38;32.45
55474;BME280;65220;52.214;0.116;2022-11-20T01:46:55;100953.56;;;15.73;32.18
55474;BME280;65220;52.214;0.116;2022-11-20T01:49:20;100950.68;;;15.46;32.46
55474;BME280;65220;52.214;0.116;2022-11-20T01:51:45;100950.29;;;15.26;32.55
55474;BME280;65220;52.214;0.116;2022-11-20T01:54:12;100947.97;;;15.51;32.39
55474;BME280;65220;52.214;0.116;2022-11-20T01:56:37;100943.17;;;15.29;32.38
55474;BME280;65220;52.214;0.116;2022-11-20T01:58:59;100936.42;;;15.05;32.52
55474;BME280;65220;52.214;0.116;2022-11-20T02:01:24;100933.22;;;15.36;32.37
55474;BME280;65220;52.214;0.116;2022-11-20T02:03:50;100931.23;;;15.44;32.28
55474;BME280;65220;52.214;0.116;2022-11-20T02:06:21;100929.90;;;15.19;32.48
55474;BME280;65220;52.214;0.116;2022-11-20T02:08:40;100927.70;;;14.99;32.62
55474;BME280;65220;52.214;0.116;2022-11-20T02:11:05;100923.50;;;15.70;32.07
55474;BME280;65220;52.214;0.116;2022-11-20T02:13:30;100922.10;;;15.41;32.28
55474;BME280;65220;52.214;0.116;2022-11-20T02:15:56;100914.84;;;15.65;32.49
55474;BME280;65220;52.214;0.116;2022-11-20T02:18:21;100914.91;;;15.53;32.40
55474;BME280;65220;52.214;0.116;2022-11-20T02:20:48;100911.84;;;15.21;32.50
55474;BME280;65220;52.214;0.116;2022-11-20T02:23:14;100909.82;;;15.53;32.12
55474;BME280;65220;52.214;0.116;2022-11-20T02:25:37;100908.50;;;15.85;31.97
55474;BME280;65220;52.214;0.116;2022-11-20T02:28:02;100904.94;;;15.30;32.26
55474;BME280;65220;52.214;0.116;2022-11-20T02:30:27;100898.26;;;15.19;32.28
55474;BME280;65220;52.214;0.116;2022-11-20T02:32:53;100897.62;;;15.79;32.16
55474;BME280;65220;52.214;0.116;2022-11-20T02:35:50;100895.19;;;15.54;32.14
55474;BME280;65220;52.214;0.116;2022-11-20T02:37:43;100885.48;;;15.52;32.16
55474;BME280;65220;52.214;0.116;2022-11-20T02:40:10;100883.61;;;15.56;32.13
55474;BME280;65220;52.214;0.116;2022-11-20T02:42:34;100877.18;;;15.47;32.28
55474;BME280;65220;52.214;0.116;2022-11-20T02:44:59;100870.99;;;15.65;32.29
55474;BME280;65220;52.214;0.116;2022-11-20T02:47:24;100868.19;;;15.76;32.14
55474;BME280;65220;52.214;0.116;2022-11-20T02:49:50;100864.21;;;15.19;32.31
55474;BME280;65220;52.214;0.116;2022-11-20T02:52:15;100859.23;;;15.09;32.41
55474;BME280;65220;52.214;0.116;2022-11-20T02:54:40;100857.26;;;15.42;32.15
55474;BME280;65220;52.214;0.116;2022-11-20T02:57:05;100858.12;;;15.45;32.14
55474;BME280;65220;52.214;0.116;2022-11-20T02:59:30;100849.63;;;15.49;32.09
55474;BME280;65220;52.214;0.116;2022-11-20T03:01:56;100844.85;;;15.66;32.05
55474;BME280;65220;52.214;0.116;2022-11-20T03:04:26;100839.25;;;15.18;32.32
55474;BME280;65220;52.214;0.116;2022-11-20T03:06:46;100833.07;;;15.34;32.44
55474;BME280;65220;52.214;0.116;2022-11-20T03:09:12;100829.55;;;15.44;32.37
55474;BME280;65220;52.214;0.116;2022-11-20T03:11:36;100827.45;;;15.69;32.06
55474;BME280;65220;52.214;0.116;2022-11-20T03:14:02;100824.90;;;15.52;32.27
55474;BME280;65220;52.214;0.116;2022-11-20T03:16:27;100821.98;;;15.33;32.22
55474;BME280;65220;52.214;0.116;2022-11-20T03:18:53;100816.75;;;15.38;32.13
55474;BME280;65220;52.214;0.116;2022-11-20T03:21:18;100807.28;;;15.33;32.29
55474;BME280;65220;52.214;0.116;2022-11-20T03:23:43;100803.65;;;15.61;32.08
55474;BME280;65220;52.214;0.116;2022-11-20T03:26:12;100801.18;;;15.46;32.17
55474;BME280;65220;52.214;0.116;2022-11-20T03:28:34;100800.70;;;15.40;32.14
55474;BME280;65220;52.214;0.116;2022-11-20T03:31:05;100796.46;;;15.43;32.15
55474;BME280;65220;52.214;0.116;2022-11-20T03:33:28;100788.54;;;15.24;32.18
55474;BME280;65220;52.214;0.116;2022-11-20T03:35:50;100784.14;;;15.76;31.96
55474;BME280;65220;52.214;0.116;2022-11-20T03:38:15;100784.15;;;15.44;31.97
55474;BME280;65220;52.214;0.116;2022-11-20T03:40:40;100783.35;;;15.82;32.01
55474;BME280;65220;52.214;0.116;2022-11-20T03:43:05;100781.64;;;15.41;32.21
55474;BME280;65220;52.214;0.116;2022-11-20T03:45:30;100781.11;;;15.36;32.11
55474;BME280;65220;52.214;0.116;2022-11-20T03:47:56;100778.52;;;15.57;32.08
55474;BME280;65220;52.214;0.116;2022-11-20T03:50:22;100776.77;;;15.67;31.80
55474;BME280;65220;52.214;0.116;2022-11-20T03:52:47;100774.40;;;15.64;31.94
55474;BME280;65220;52.214;0.116;2022-11-20T03:55:12;100772.34;;;15.77;31.65
55474;BME280;65220;52.214;0.116;2022-11-20T03:57:37;100773.64;;;15.81;31.63
55474;BME280;65220;52.214;0.116;2022-11-20T04:00:04;100779.07;;;15.86;31.62
55474;BME280;65220;52.214;0.116;2022-11-20T04:02:28;100772.77;;;15.94;31.60
55474;BME280;65220;52.214;0.116;2022-11-20T04:04:53;100770.78;;;16.18;31.46
55474;BME280;65220;52.214;0.116;2022-11-20T04:07:18;100769.02;;;16.09;31.48
55474;BME280;65220;52.214;0.116;2022-11-20T04:09:44;100769.63;;;16.06;31.50
55474;BME280;65220;52.214;0.116;2022-11-20T04:12:09;100766.94;;;16.01;31.46
55474;BME280;65220;52.214;0.116;2022-11-20T04:14:34;100763.31;;;15.91;31.51
55474;BME280;65220;52.214;0.116;2022-11-20T04:16:59;100760.19;;;15.73;31.63
55474;BME280;65220;52.214;0.116;2022-11-20T04:19:24;100757.61;;;15.92;31.58
55474;BME280;65220;52.214;0.116;2022-11-20T04:21:50;100751.84;;;15.97;31.56
55474;BME280;65220;52.214;0.116;2022-11-20T04:24:15;100745.61;;;15.86;31.48
55474;BME280;65220;52.214;0.116;2022-11-20T04:26:40;100740.93;;;16.00;31.59
55474;BME280;65220;52.214;0.116;2022-11-20T04:29:05;100736.15;;;16.15;31.54
55474;BME280;65220;52.214;0.116;2022-11-20T04:31:32;100732.36;;;15.99;31.54
55474;BME280;65220;52.214;0.116;2022-11-20T04:33:59;100725.27;;;15.65;31.59
55474;BME280;65220;52.214;0.116;2022-11-20T04:36:24;100718.05;;;16.04;31.51
55474;BME280;65220;52.214;0.116;2022-11-20T04:38:50;100712.86;;;16.06;31.56
55474;BME280;65220;52.214;0.116;2022-11-20T04:41:15;100711.86;;;15.86;31.57
55474;BME280;65220;52.214;0.116;2022-11-20T04:43:37;100712.48;;;15.98;31.53
55474;BME280;65220;52.214;0.116;2022-11-20T04:46:02;100710.51;;;15.98;31.56
55474;BME280;65220;52.214;0.116;2022-11-20T04:48:28;100708.55;;;16.06;31.58
55474;BME280;65220;52.214;0.116;2022-11-20T04:50:53;100708.54;;;16.05;31.56
55474;BME280;65220;52.214;0.116;2022-11-20T04:53:19;100705.18;;;15.81;31.74
55474;BME280;65220;52.214;0.116;2022-11-20T04:55:44;100701.68;;;15.82;31.55
55474;BME280;65220;52.214;0.116;2022-11-20T04:58:09;100698.65;;;16.17;31.62
55474;BME280;65220;52.214;0.116;2022-11-20T05:00:35;100693.07;;;15.86;31.64
55474;BME280;65220;52.214;0.116;2022-11-20T05:03:00;100689.80;;;15.85;31.70
55474;BME280;65220;52.214;0.116;2022-11-20T05:05:25;100685.19;;;15.71;31.77
55474;BME280;65220;52.214;0.116;2022-11-20T05:07:50;100682.13;;;15.61;31.70
55474;BME280;65220;52.214;0.116;2022-11-20T05:10:15;100676.55;;;15.37;31.76
55474;BME280;65220;52.214;0.116;2022-11-20T05:12:41;100675.12;;;15.28;31.70
55474;BME280;65220;52.214;0.116;2022-11-20T05:15:06;100670.95;;;15.55;31.70
55474;BME280;65220;52.214;0.116;2022-11-20T05:17:31;100663.36;;;15.80;31.62
55474;BME280;65220;52.214;0.116;2022-11-20T05:19:56;100659.99;;;15.68;31.58
55474;BME280;65220;52.214;0.116;2022-11-20T05:22:22;100651.98;;;15.93;31.60
55474;BME280;65220;52.214;0.116;2022-11-20T05:24:47;100646.09;;;15.75;31.71
55474;BME280;65220;52.214;0.116;2022-11-20T05:27:12;100639.84;;;15.65;31.71
55474;BME280;65220;52.214;0.116;2022-11-20T05:29:37;100637.11;;;15.24;31.81
55474;BME280;65220;52.214;0.116;2022-11-20T05:32:03;100631.55;;;15.58;31.60
55474;BME280;65220;52.214;0.116;2022-11-20T05:34:28;100627.46;;;15.73;31.54
55474;BME280;65220;52.214;0.116;2022-11-20T05:36:53;100620.84;;;15.68;31.96
55474;BME280;65220;52.214;0.116;2022-11-20T05:39:18;100616.81;;;15.84;31.57
55474;BME280;65220;52.214;0.116;2022-11-20T05:41:44;100612.94;;;15.78;31.74
55474;BME280;65220;52.214;0.116;2022-11-20T05:44:22;100608.90;;;15.91;31.82
55474;BME280;65220;52.214;0.116;2022-11-20T05:46:47;100607.00;;;15.82;31.89
55474;BME280;65220;52.214;0.116;2022-11-20T05:49:13;100606.19;;;15.48;31.77
55474;BME280;65220;52.214;0.116;2022-11-20T05:51:38;100605.07;;;15.76;31.87
55474;BME280;65220;52.214;0.116;2022-11-20T05:54:03;100602.88;;;16.00;31.68
55474;BME280;65220;52.214;0.116;2022-11-20T05:56:28;100599.79;;;15.73;31.90
55474;BME280;65220;52.214;0.116;2022-11-20T05:58:53;100598.36;;;16.09;31.63
55474;BME280;65220;52.214;0.116;2022-11-20T06:01:21;100595.44;;;15.84;31.61
55474;BME280;65220;52.214;0.116;2022-11-20T06:03:44;100589.68;;;15.58;31.81
55474;BME280;65220;52.214;0.116;2022-11-20T06:06:09;100590.19;;;15.80;31.65
55474;BME280;65220;52.214;0.116;2022-11-20T06:08:35;100585.01;;;15.87;31.64
55474;BME280;65220;52.214;0.116;2022-11-20T06:11:04;100586.85;;;15.85;31.59
55474;BME280;65220;52.214;0.116;2022-11-20T06:13:25;100582.10;;;15.97;31.73
55474;BME280;65220;52.214;0.116;2022-11-20T06:15:51;100580.16;;;15.98;31.62
55474;BME280;65220;52.214;0.116;2022-11-20T06:18:20;100576.36;;;15.92;31.75
55474;BME280;65220;52.214;0.116;2022-11-20T06:20:41;100572.11;;;15.73;31.67
55474;BME280;65220;52.214;0.116;2022-11-20T06:23:07;100571.93;;;15.87;31.62
55474;BME280;65220;52.214;0.116;2022-11-20T06:25:31;100571.83;;;16.24;31.70
55474;BME280;65220;52.214;0.116;2022-11-20T06:27:56;100576.11;;;15.78;31.72
55474;BME280;65220;52.214;0.116;2022-11-20T06:30:21;100568.75;;;15.75;31.70
55474;BME280;65220;52.214;0.116;2022-11-20T06:32:47;100565.46;;;16.05;31.72
55474;BME280;65220;52.214;0.116;2022-11-20T06:35:12;100563.65;;;15.69;31.73
55474;BME280;65220;52.214;0.116;2022-11-20T06:37:37;100560.72;;;16.00;31.63
55474;BME280;65220;52.214;0.116;2022-11-20T06:40:03;100562.47;;;15.69;31.70
55474;BME280;65220;52.214;0.116;2022-11-20T06:42:27;100556.07;;;15.91;31.66
55474;BME280;65220;52.214;0.116;2022-11-20T06:44:53;100558.65;;;15.63;31.75
55474;BME280;65220;52.214;0.116;2022-11-20T06:47:18;100560.90;;;16.08;31.59
55474;BME280;65220;52.214;0.116;2022-11-20T06:49:43;100556.91;;;15.84;31.62
55474;BME280;65220;52.214;0.116;2022-11-20T06:52:08;100553.77;;;15.91;31.68
55474;BME280;65220;52.214;0.116;2022-11-20T06:54:34;100554.48;;;15.62;31.76
55474;BME280;65220;52.214;0.116;2022-11-20T06:56:59;100555.74;;;15.91;31.76
55474;BME280;65220;52.214;0.116;2022-11-20T06:59:24;100555.05;;;15.79;31.69
55474;BME280;65220;52.214;0.116;2022-11-20T07:01:49;100551.18;;;15.74;31.78
55474;BME280;65220;52.214;0.116;2022-11-20T07:04:15;100549.71;;;16.02;31.67
55474;BME280;65220;52.214;0.116;2022-11-20T07:06:40;100535.32;;;15.77;31.70
55474;BME280;65220;52.214;0.116;2022-11-20T07:09:05;100540.92;;;15.92;31.66
55474;BME280;65220;52.214;0.116;2022-11-20T07:11:30;100532.49;;;15.59;31.80
55474;BME280;65220;52.214;0.116;2022-11-20T07:13:57;100532.83;;;15.62;31.79
55474;BME280;65220;52.214;0.116;2022-11-20T07:16:21;100526.84;;;16.16;31.70
55474;BME280;65220;52.214;0.116;2022-11-20T07:18:46;100527.46;;;15.72;31.76
55474;BME280;65220;52.214;0.116;2022-11-20T07:21:11;100525.54;;;15.74;31.83
55474;BME280;65220;52.214;0.116;2022-11-20T07:23:37;100520.82;;;15.85;31.76
55474;BME280;65220;52.214;0.116;2022-11-20T07:26:03;100516.35;;;15.80;31.76
55474;BME280;65220;52.214;0.116;2022-11-20T07:28:27;100527.79;;;15.70;31.76
55474;BME280;65220;52.214;0.116;2022-11-20T07:30:52;100526.52;;;15.77;31.80
55474;BME280;65220;52.214;0.116;2022-11-20T07:33:17;100529.71;;;15.86;31.79
55474;BME280;65220;52.214;0.116;2022-11-20T07:35:42;100532.51;;;15.58;31.73
55474;BME280;65220;52.214;0.116;2022-11-20T07:38:07;100538.53;;;15.98;31.79
55474;BME280;65220;52.214;0.116;2022-11-20T07:40:33;100535.30;;;15.56;31.76
55474;BME280;65220;52.214;0.116;2022-11-20T07:42:58;100529.40;;;15.81;31.79
55474;BME280;65220;52.214;0.116;2022-11-20T07:45:24;100525.19;;;15.98;31.71
55474;BME280;65220;52.214;0.116;2022-11-20T07:47:48;100521.84;;;15.76;31.68
55474;BME280;65220;52.214;0.116;2022-11-20T07:50:14;100525.93;;;15.62;31.87
55474;BME280;65220;52.214;0.116;2022-11-20T07:52:39;100525.67;;;15.49;31.82
55474;BME280;65220;52.214;0.116;2022-11-20T07:55:04;100532.55;;;15.70;31.88
55474;BME280;65220;52.214;0.116;2022-11-20T07:57:29;100534.39;;;15.58;31.90
55474;BME280;65220;52.214;0.116;2022-11-20T07:59:54;100532.24;;;15.93;31.82
55474;BME280;65220;52.214;0.116;2022-11-20T08:02:19;100535.17;;;15.71;31.76
55474;BME280;65220;52.214;0.116;2022-11-20T08:04:44;100533.27;;;15.72;31.85
55474;BME280;65220;52.214;0.116;2022-11-20T08:07:10;100532.57;;;15.81;31.84
55474;BME280;65220;52.214;0.116;2022-11-20T08:09:35;100536.50;;;15.68;31.79
55474;BME280;65220;52.214;0.116;2022-11-20T08:12:01;100537.08;;;15.37;31.87
55474;BME280;65220;52.214;0.116;2022-11-20T08:14:25;100539.55;;;15.59;31.89
55474;BME280;65220;52.214;0.116;2022-11-20T08:16:50;100541.16;;;15.55;31.83
55474;BME280;65220;52.214;0.116;2022-11-20T08:19:17;100545.20;;;15.76;31.90
55474;BME280;65220;52.214;0.116;2022-11-20T08:21:41;100546.16;;;15.69;31.88
55474;BME280;65220;52.214;0.116;2022-11-20T08:24:07;100546.32;;;15.83;31.76
55474;BME280;65220;52.214;0.116;2022-11-20T08:26:31;100547.76;;;15.57;31.86
55474;BME280;65220;52.214;0.116;2022-11-20T08:28:57;100549.98;;;15.83;31.80
55474;BME280;65220;52.214;0.116;2022-11-20T08:31:22;100556.68;;;15.61;31.79
55474;BME280;65220;52.214;0.116;2022-11-20T08:33:47;100556.55;;;15.75;31.77
55474;BME280;65220;52.214;0.116;2022-11-20T08:36:12;100555.14;;;15.75;31.75
55474;BME280;65220;52.214;0.116;2022-11-20T08:38:37;100556.58;;;15.57;31.86
55474;BME280;65220;52.214;0.116;2022-11-20T08:41:04;100557.38;;;15.67;31.80
55474;BME280;65220;52.214;0.116;2022-11-20T08:43:27;100557.89;;;15.87;31.80
55474;BME280;65220;52.214;0.116;2022-11-20T08:45:53;100558.73;;;15.67;31.80
55474;BME280;65220;52.214;0.116;2022-11-20T08:48:18;100556.31;;;15.57;31.92
55474;BME280;65220;52.214;0.116;2022-11-20T08:50:43;100554.94;;;15.35;31.78
55474;BME280;65220;52.214;0.116;2022-11-20T08:53:08;100558.80;;;16.68;31.25
55474;BME280;65220;52.214;0.116;2022-11-20T08:55:34;100559.80;;;15.73;31.67
55474;BME280;65220;52.214;0.116;2022-11-20T08:58:03;100556.77;;;16.06;31.57
55474;BME280;65220;52.214;0.116;2022-11-20T09:00:24;100552.88;;;15.65;31.97
55474;BME280;65220;52.214;0.116;2022-11-20T09:02:49;100551.86;;;16.04;31.95
55474;BME280;65220;52.214;0.116;2022-11-20T09:05:15;100549.18;;;15.68;32.15
55474;BME280;65220;52.214;0.116;2022-11-20T09:07:39;100546.90;;;16.56;32.05
55474;BME280;65220;52.214;0.116;2022-11-20T09:10:05;100544.47;;;16.02;32.38
55474;BME280;65220;52.214;0.116;2022-11-20T09:12:30;100542.01;;;15.71;32.59
55474;BME280;65220;52.214;0.116;2022-11-20T09:14:55;100539.74;;;16.22;32.65
55474;BME280;65220;52.214;0.116;2022-11-20T09:17:20;100536.98;;;16.25;33.02
55474;BME280;65220;52.214;0.116;2022-11-20T09:19:46;100534.88;;;16.67;33.03
55474;BME280;65220;52.214;0.116;2022-11-20T09:22:11;100534.40;;;16.68;32.90
55474;BME280;65220;52.214;0.116;2022-11-20T09:24:36;100537.89;;;16.91;32.71
55474;BME280;65220;52.214;0.116;2022-11-20T09:27:03;100539.06;;;17.09;32.69
55474;BME280;65220;52.214;0.116;2022-11-20T09:29:27;100536.02;;;16.54;32.91
55474;BME280;65220;52.214;0.116;2022-11-20T09:31:52;100538.69;;;16.74;32.92
55474;BME280;65220;52.214;0.116;2022-11-20T09:34:17;100538.57;;;16.61;32.84
55474;BME280;65220;52.214;0.116;2022-11-20T09:36:42;100538.52;;;16.65;32.89
55474;BME280;65220;52.214;0.116;2022-11-20T09:39:07;100541.18;;;16.92;32.72
55474;BME280;65220;52.214;0.116;2022-11-20T09:41:51;100544.80;;;16.47;32.84
55474;BME280;65220;52.214;0.116;2022-11-20T09:44:03;100547.00;;;17.09;32.75
55474;BME280;65220;52.214;0.116;2022-11-20T09:46:29;100542.10;;;16.56;32.83
55474;BME280;65220;52.214;0.116;2022-11-20T09:48:58;100536.11;;;16.89;32.79
55474;BME280;65220;52.214;0.116;2022-11-20T09:51:21;100542.72;;;16.29;33.02
55474;BME280;65220;52.214;0.116;2022-11-20T09:53:48;100545.53;;;17.05;32.70
55474;BME280;65220;52.214;0.116;2022-11-20T09:56:04;100541.26;;;16.48;32.91
55474;BME280;65220;52.214;0.116;2022-11-20T09:58:33;100542.46;;;16.81;32.85
55474;BME280;65220;52.214;0.116;2022-11-20T10:00:54;100536.96;;;17.17;32.29
55474;BME280;65220;52.214;0.116;2022-11-20T10:03:33;100538.80;;;15.99;33.11
55474;BME280;65220;52.214;0.116;2022-11-20T10:05:48;100534.70;;;16.53;32.93
55474;BME280;65220;52.214;0.116;2022-11-20T10:08:15;100536.41;;;16.69;32.82
55474;BME280;65220;52.214;0.116;2022-11-20T10:10:38;100529.78;;;16.86;32.69
55474;BME280;65220;52.214;0.116;2022-11-20T10:13:12;100532.92;;;17.58;32.32
55474;BME280;65220;52.214;0.116;2022-11-20T10:15:32;100535.20;;;17.39;32.51
55474;BME280;65220;52.214;0.116;2022-11-20T10:18:02;100533.53;;;16.37;32.95
55474;BME280;65220;52.214;0.116;2022-11-20T10:20:20;100534.89;;;16.61;32.91
55474;BME280;65220;52.214;0.116;2022-11-20T10:22:51;100531.11;;;16.88;33.03
55474;BME280;65220;52.214;0.116;2022-11-20T10:25:12;100536.64;;;16.92;32.99
55474;BME280;65220;52.214;0.116;2022-11-20T10:27:52;100538.13;;;16.57;32.93
55474;BME280;65220;52.214;0.116;2022-11-20T10:30:02;100541.21;;;16.61;33.02
55474;BME280;65220;52.214;0.116;2022-11-20T10:32:27;100537.01;;;17.05;32.92
55474;BME280;65220;52.214;0.116;2022-11-20T10:34:50;100536.24;;;16.54;33.03
55474;BME280;65220;52.214;0.116;2022-11-20T10:37:16;100532.13;;;16.70;32.98
55474;BME280;65220;52.214;0.116;2022-11-20T10:39:41;100527.88;;;16.88;32.98
55474;BME280;65220;52.214;0.116;2022-11-20T10:42:02;100525.48;;;17.26;32.64
55474;BME280;65220;52.214;0.116;2022-11-20T10:44:30;100518.95;;;16.67;32.82
55474;BME280;65220;52.214;0.116;2022-11-20T10:46:53;100515.92;;;17.53;32.58
55474;BME280;65220;52.214;0.116;2022-11-20T10:49:19;100509.71;;;17.48;32.66
55474;BME280;65220;52.214;0.116;2022-11-20T10:51:53;100507.47;;;16.36;33.33
55474;BME280;65220;52.214;0.116;2022-11-20T10:54:18;100498.93;;;16.64;33.10
55474;BME280;65220;52.214;0.116;2022-11-20T10:56:39;100500.41;;;16.42;33.23
55474;BME280;65220;52.214;0.116;2022-11-20T10:59:11;100501.08;;;16.54;33.22
55474;BME280;65220;52.214;0.116;2022-11-20T11:01:25;100499.74;;;16.61;33.17
55474;BME280;65220;52.214;0.116;2022-11-20T11:03:51;100501.50;;;16.36;32.98
55474;BME280;65220;52.214;0.116;2022-11-20T11:06:22;100503.63;;;17.06;32.74
55474;BME280;65220;52.214;0.116;2022-11-20T11:08:41;100514.10;;;16.40;33.08
55474;BME280;65220;52.214;0.116;2022-11-20T11:11:17;100512.27;;;16.25;33.16
55474;BME280;65220;52.214;0.116;2022-11-20T11:13:32;100502.25;;;16.67;32.95
55474;BME280;65220;52.214;0.116;2022-11-20T11:15:58;100506.65;;;16.00;33.29
55474;BME280;65220;52.214;0.116;2022-11-20T11:18:24;100505.74;;;16.26;33.14
55474;BME280;65220;52.214;0.116;2022-11-20T11:20:50;100499.70;;;16.05;32.97
55474;BME280;65220;52.214;0.116;2022-11-20T11:23:29;100499.10;;;16.11;33.01
55474;BME280;65220;52.214;0.116;2022-11-20T11:25:40;100503.54;;;16.11;32.93
55474;BME280;65220;52.214;0.116;2022-11-20T11:28:20;100504.35;;;16.52;33.02
55474;BME280;65220;52.214;0.116;2022-11-20T11:30:41;100495.17;;;16.21;32.89
55474;BME280;65220;52.214;0.116;2022-11-20T11:33:05;100499.54;;;16.35;32.85
55474;BME280;65220;52.214;0.116;2022-11-20T11:35:24;100497.72;;;16.30;32.75
55474;BME280;65220;52.214;0.116;2022-11-20T11:37:46;100508.26;;;16.04;32.65
55474;BME280;65220;52.214;0.116;2022-11-20T11:40:12;100514.26;;;15.47;31.38
55474;BME280;65220;52.214;0.116;2022-11-20T11:42:41;100509.56;;;14.76;30.94
55474;BME280;65220;52.214;0.116;2022-11-20T11:45:02;100512.10;;;15.00;30.23
55474;BME280;65220;52.214;0.116;2022-11-20T11:47:31;100514.05;;;15.65;30.06
55474;BME280;65220;52.214;0.116;2022-11-20T11:50:02;100514.76;;;15.31;31.09
55474;BME280;65220;52.214;0.116;2022-11-20T11:52:20;100510.15;;;15.94;30.97
55474;BME280;65220;52.214;0.116;2022-11-20T11:54:47;100508.17;;;15.97;30.89
55474;BME280;65220;52.214;0.116;2022-11-20T11:57:14;100506.76;;;15.95;31.34
55474;BME280;65220;52.214;0.116;2022-11-20T11:59:46;100503.88;;;15.52;31.12
55474;BME280;65220;52.214;0.116;2022-11-20T12:02:02;100501.64;;;15.06;31.52
55474;BME280;65220;52.214;0.116;2022-11-20T12:04:36;100495.87;;;15.78;31.41
55474;BME280;65220;52.214;0.116;2022-11-20T12:06:53;100501.08;;;15.87;31.35
55474;BME280;65220;52.214;0.116;2022-11-20T12:09:14;100502.10;;;16.11;31.30
55474;BME280;65220;52.214;0.116;2022-11-20T12:11:45;100500.23;;;15.99;31.40
55474;BME280;65220;52.214;0.116;2022-11-20T12:14:11;100502.26;;;15.97;31.51
55474;BME280;65220;52.214;0.116;2022-11-20T12:16:34;100502.45;;;16.07;31.53
55474;BME280;65220;52.214;0.116;2022-11-20T12:18:55;100501.04;;;16.23;31.52
55474;BME280;65220;52.214;0.116;2022-11-20T12:21:29;100502.84;;;15.89;31.61
55474;BME280;65220;52.214;0.116;2022-11-20T12:24:06;100498.73;;;16.03;31.78
55474;BME280;65220;52.214;0.116;2022-11-20T12:26:20;100496.98;;;15.93;31.74
55474;BME280;65220;52.214;0.116;2022-11-20T12:28:46;100500.48;;;16.14;31.77
55474;BME280;65220;52.214;0.116;2022-11-20T12:31:18;100501.00;;;15.64;31.88
55474;BME280;65220;52.214;0.116;2022-11-20T12:33:41;100511.88;;;16.21;31.82
55474;BME280;65220;52.214;0.116;2022-11-20T12:36:04;100508.38;;;15.89;31.81
55474;BME280;65220;52.214;0.116;2022-11-20T12:38:34;100510.49;;;15.91;31.89